createdAt,value
2023-04-01T00:00:54.021Z,9.60
2023-04-01T00:03:21.846Z,9.95
2023-04-01T00:05:48.707Z,13.68
2023-04-01T00:08:15.738Z,7.07
2023-04-01T00:10:42.473Z,5.90
2023-04-01T00:13:09.246Z,11.93
2023-04-01T00:15:36.180Z,11.43
2023-04-01T00:18:03.091Z,7.03
2023-04-01T00:20:30.161Z,7.85
2023-04-01T00:22:57.175Z,8.57
2023-04-01T00:25:24.138Z,9.60
2023-04-01T00:27:51.180Z,10.07
2023-04-01T00:30:18.061Z,10.27
2023-04-01T00:32:44.886Z,11.32
2023-04-01T00:35:11.833Z,12.15
2023-04-01T00:37:40.432Z,12.35
2023-04-01T00:40:08.333Z,13.73
2023-04-01T00:42:35.067Z,11.70
2023-04-01T00:45:24.566Z,6.70
2023-04-01T00:47:51.549Z,10.52
2023-04-01T00:50:18.394Z,9.93
2023-04-01T00:52:45.342Z,7.32
2023-04-01T00:55:12.174Z,9.45
2023-04-01T00:57:38.960Z,14.10
2023-04-01T01:00:08.342Z,11.18
2023-04-01T01:02:35.571Z,22.42
2023-04-01T01:05:02.550Z,15.52
2023-04-01T01:07:44.877Z,11.98
2023-04-01T01:10:21.717Z,10.60
2023-04-01T01:13:23.920Z,9.32
2023-04-01T01:15:52.852Z,7.70
2023-04-01T01:18:21.285Z,7.28
2023-04-01T01:21:25.812Z,8.77
2023-04-01T01:24:14.567Z,7.28
2023-04-01T01:26:43.671Z,7.32
2023-04-01T01:29:23.782Z,8.15
2023-04-01T01:31:59.348Z,6.97
2023-04-01T01:34:40.950Z,8.57
2023-04-01T01:37:11.843Z,7.10
2023-04-01T01:42:07.243Z,7.05
2023-04-01T01:44:34.810Z,6.68
2023-04-01T01:47:01.681Z,6.88
2023-04-01T01:49:31.254Z,5.20
2023-04-01T01:51:58.429Z,7.50
2023-04-01T01:54:25.192Z,4.93
2023-04-01T01:56:53.354Z,5.88
2023-04-01T01:59:21.838Z,5.53
2023-04-01T02:01:51.042Z,3.42
2023-04-01T02:04:17.919Z,5.15
2023-04-01T02:06:49.194Z,4.93
2023-04-01T02:09:16.213Z,4.43
2023-04-01T02:11:46.190Z,6.00
2023-04-01T02:14:23.529Z,4.73
2023-04-01T02:17:03.047Z,5.50
2023-04-01T02:19:33.810Z,3.70
2023-04-01T02:22:02.162Z,4.82
2023-04-01T02:24:29.542Z,4.88
2023-04-01T02:26:56.352Z,6.10
2023-04-01T02:29:24.263Z,12.95
2023-04-01T02:31:51.190Z,26.85
2023-04-01T02:34:18.215Z,8.07
2023-04-01T02:36:44.952Z,5.53
2023-04-01T02:39:11.725Z,7.25
2023-04-01T02:41:42.579Z,6.22
2023-04-01T02:44:09.854Z,6.40
2023-04-01T02:46:37.162Z,5.18
2023-04-01T02:49:04.378Z,5.18
2023-04-01T02:51:32.185Z,5.38
2023-04-01T02:53:59.799Z,7.28
2023-04-01T02:56:27.076Z,5.40
2023-04-01T02:58:54.503Z,5.72
2023-04-01T03:01:21.622Z,3.65
2023-04-01T03:03:48.498Z,7.55
2023-04-01T03:06:16.198Z,6.07
2023-04-01T03:08:43.355Z,5.47
2023-04-01T03:11:11.082Z,7.75
2023-04-01T03:13:37.827Z,6.50
2023-04-01T03:16:04.882Z,5.47
2023-04-01T03:18:31.687Z,4.38
2023-04-01T03:20:58.467Z,2.15
2023-04-01T03:23:25.331Z,4.82
2023-04-01T03:25:52.180Z,2.42
2023-04-01T03:28:18.985Z,3.15
2023-04-01T03:30:45.978Z,2.95
2023-04-01T03:33:12.858Z,1.65
2023-04-01T03:35:39.590Z,1.30
2023-04-01T03:38:06.528Z,3.33
2023-04-01T03:40:34.112Z,2.25
2023-04-01T03:43:01.028Z,1.20
2023-04-01T03:45:28.021Z,3.35
2023-04-01T03:47:55.441Z,2.03
2023-04-01T03:50:22.161Z,3.50
2023-04-01T03:52:48.930Z,1.92
2023-04-01T03:55:16.589Z,3.20
2023-04-01T03:57:43.404Z,1.42
2023-04-01T04:00:10.718Z,3.80
2023-04-01T04:02:37.686Z,1.50
2023-04-01T04:05:04.970Z,1.25
2023-04-01T04:07:31.814Z,1.88
2023-04-01T04:09:58.590Z,2.40
2023-04-01T04:12:25.393Z,3.17
2023-04-01T04:14:52.233Z,19.58
2023-04-01T04:17:19.052Z,38.40
2023-04-01T04:19:45.903Z,16.88
2023-04-01T04:22:12.614Z,4.07
2023-04-01T04:24:39.482Z,2.08
2023-04-01T04:27:06.399Z,1.73
2023-04-01T04:29:33.151Z,2.42
2023-04-01T04:32:00.170Z,1.10
2023-04-01T04:34:27.136Z,0.98
2023-04-01T04:36:53.924Z,2.40
2023-04-01T04:39:20.678Z,1.17
2023-04-01T04:41:47.395Z,1.42
2023-04-01T04:44:14.129Z,1.75
2023-04-01T04:46:40.937Z,2.85
2023-04-01T04:49:07.846Z,2.17
2023-04-01T04:51:36.823Z,3.72
2023-04-01T04:54:04.350Z,4.22
2023-04-01T04:56:31.778Z,3.00
2023-04-01T04:58:58.827Z,3.33
2023-04-01T05:01:26.116Z,9.50
2023-04-01T05:03:53.069Z,3.58
2023-04-01T05:06:21.647Z,5.45
2023-04-01T05:08:50.445Z,4.45
2023-04-01T05:11:20.265Z,3.88
2023-04-01T05:13:47.512Z,5.63
2023-04-01T05:16:16.443Z,4.40
2023-04-01T05:18:43.372Z,3.30
2023-04-01T05:21:11.131Z,5.00
2023-04-01T05:23:38.095Z,8.07
2023-04-01T05:26:09.067Z,5.13
2023-04-01T05:31:03.569Z,19.85
2023-04-01T05:33:30.930Z,7.78
2023-04-01T05:35:58.054Z,2.63
2023-04-01T05:38:24.897Z,4.65
2023-04-01T05:40:51.595Z,2.83
2023-04-01T05:43:18.427Z,4.35
2023-04-01T05:45:45.343Z,5.90
2023-04-01T05:48:12.144Z,8.30
2023-04-01T05:50:40.527Z,6.57
2023-04-01T05:53:07.270Z,6.13
2023-04-01T05:55:36.831Z,3.70
2023-04-01T05:58:03.671Z,3.28
2023-04-01T06:00:30.588Z,2.30
2023-04-01T06:03:02.308Z,3.17
2023-04-01T06:05:31.343Z,2.90
2023-04-01T06:08:11.076Z,4.13
2023-04-01T06:10:52.517Z,4.57
2023-04-01T06:14:00.058Z,2.20
2023-04-01T06:16:35.724Z,4.45
2023-04-01T06:19:32.810Z,5.57
2023-04-01T06:22:05.450Z,4.75
2023-04-01T06:24:44.158Z,5.78
2023-04-01T06:27:32.463Z,8.90
2023-04-01T06:30:44.374Z,10.27
2023-04-01T06:33:29.926Z,11.75
2023-04-01T06:36:08.773Z,9.55
2023-04-01T06:38:56.864Z,12.15
2023-04-01T06:41:53.274Z,10.17
2023-04-01T06:44:39.487Z,11.13
2023-04-01T06:47:21.203Z,8.00
2023-04-01T06:50:09.845Z,9.07
2023-04-01T06:52:45.897Z,7.03
2023-04-01T06:55:27.904Z,8.10
2023-04-01T06:57:59.166Z,7.82
2023-04-01T07:00:37.457Z,7.80
2023-04-01T07:03:14.000Z,12.52
2023-04-01T07:05:40.911Z,8.05
2023-04-01T07:08:11.314Z,13.88
2023-04-01T07:10:49.034Z,20.77
2023-04-01T07:13:28.592Z,16.00
2023-04-01T07:16:06.370Z,10.10
2023-04-01T07:18:51.141Z,8.65
2023-04-01T07:21:33.681Z,8.63
2023-04-01T07:24:04.383Z,9.27
2023-04-01T07:26:31.283Z,5.40
2023-04-01T07:28:58.255Z,4.35
2023-04-01T07:31:48.323Z,4.47
2023-04-01T07:34:37.963Z,24.15
2023-04-01T07:37:24.942Z,27.90
2023-04-01T07:40:09.636Z,20.30
2023-04-01T07:43:21.621Z,2.90
2023-04-01T07:46:24.769Z,2.17
2023-04-01T07:49:22.243Z,0.80
2023-04-01T07:51:55.700Z,2.75
2023-04-01T07:54:34.383Z,0.75
2023-04-01T07:57:19.182Z,2.25
2023-04-01T08:00:00.140Z,2.45
2023-04-01T08:05:12.170Z,21.05
2023-04-01T08:08:03.978Z,16.50
2023-04-01T08:10:44.765Z,14.43
2023-04-01T08:13:36.438Z,15.65
2023-04-01T08:16:03.156Z,8.25
2023-04-01T08:18:53.811Z,8.30
2023-04-01T08:21:26.358Z,9.85
2023-04-01T08:23:54.003Z,7.22
2023-04-01T08:26:31.388Z,5.10
2023-04-01T08:29:02.019Z,2.70
2023-04-01T08:31:50.244Z,8.57
2023-04-01T08:34:28.321Z,3.45
2023-04-01T08:37:26.104Z,4.60
2023-04-01T08:39:58.322Z,4.45
2023-04-01T08:43:00.232Z,3.97
2023-04-01T08:45:36.301Z,5.03
2023-04-01T08:48:31.895Z,3.83
2023-04-01T08:51:14.493Z,5.47
2023-04-01T08:53:53.040Z,6.82
2023-04-01T08:56:27.786Z,8.60
2023-04-01T08:59:16.297Z,7.28
2023-04-01T09:02:10.390Z,9.95
2023-04-01T09:05:23.163Z,2.45
2023-04-01T09:08:14.267Z,1.48
2023-04-01T09:10:59.874Z,1.52
2023-04-01T09:13:57.450Z,1.25
2023-04-01T09:16:26.312Z,3.10
2023-04-01T09:19:20.938Z,1.08
2023-04-01T09:22:18.698Z,2.00
2023-04-01T09:24:59.713Z,3.88
2023-04-01T09:27:31.860Z,5.70
2023-04-01T09:30:33.475Z,2.30
2023-04-01T09:33:18.496Z,1.75
2023-04-01T09:36:28.155Z,8.23
2023-04-01T09:38:59.991Z,3.10
2023-04-01T09:41:34.151Z,9.80
2023-04-01T09:44:09.701Z,4.10
2023-04-01T09:47:11.777Z,8.73
2023-04-01T09:49:50.612Z,6.20
2023-04-01T09:52:27.873Z,8.68
2023-04-01T09:55:13.503Z,2.63
2023-04-01T09:57:52.416Z,2.95
2023-04-01T10:00:22.429Z,4.43
2023-04-01T10:03:11.206Z,11.52
2023-04-01T10:05:49.977Z,3.15
2023-04-01T10:08:34.770Z,15.50
2023-04-01T10:11:04.321Z,21.30
2023-04-01T10:13:55.933Z,7.10
2023-04-01T10:16:41.554Z,4.47
2023-04-01T10:19:21.054Z,1.50
2023-04-01T10:22:02.922Z,1.98
2023-04-01T10:24:51.380Z,2.55
2023-04-01T10:27:47.272Z,2.88
2023-04-01T10:30:36.945Z,5.03
2023-04-01T10:33:41.567Z,3.90
2023-04-01T10:36:22.905Z,6.07
2023-04-01T10:39:11.536Z,3.70
2023-04-01T10:42:04.218Z,3.03
2023-04-01T10:44:55.854Z,1.85
2023-04-01T10:47:37.554Z,0.80
2023-04-01T10:50:23.310Z,4.63
2023-04-01T10:53:14.756Z,0.80
2023-04-01T10:55:59.524Z,1.45
2023-04-01T10:58:55.564Z,3.70
2023-04-01T11:02:11.209Z,1.45
2023-04-01T11:05:16.060Z,1.20
2023-04-01T11:08:04.941Z,1.35
2023-04-01T11:10:45.417Z,5.60
2023-04-01T11:13:12.254Z,0.63
2023-04-01T11:15:54.173Z,0.80
2023-04-01T11:18:42.020Z,0.40
2023-04-01T11:21:27.370Z,0.57
2023-04-01T11:24:20.780Z,0.50
2023-04-01T11:27:06.086Z,0.52
2023-04-01T11:29:44.350Z,2.15
2023-04-01T11:32:19.743Z,2.78
2023-04-01T11:35:24.969Z,3.10
2023-04-01T11:38:16.326Z,18.88
2023-04-01T11:40:49.579Z,0.90
2023-04-01T11:43:32.197Z,2.33
2023-04-01T11:46:13.181Z,2.03
2023-04-01T11:49:00.105Z,20.00
2023-04-01T11:51:37.418Z,1.55
2023-04-01T11:54:13.442Z,2.35
2023-04-01T11:57:13.871Z,0.77
2023-04-01T12:00:01.776Z,2.20
2023-04-01T12:02:56.665Z,1.13
2023-04-01T12:05:44.475Z,0.60
2023-04-01T12:08:48.780Z,7.63
2023-04-01T12:11:17.267Z,1.20
2023-04-01T12:14:06.002Z,5.25
2023-04-01T12:16:42.824Z,1.25
2023-04-01T12:20:06.098Z,1.75
2023-04-01T12:22:53.652Z,3.30
2023-04-01T12:25:40.749Z,3.65
2023-04-01T12:28:38.406Z,1.88
2023-04-01T12:31:29.792Z,6.03
2023-04-01T12:34:18.418Z,7.47
2023-04-01T12:37:06.608Z,1.10
2023-04-01T12:40:00.612Z,0.40
2023-04-01T12:42:49.929Z,2.55
2023-04-01T12:45:34.154Z,2.75
2023-04-01T12:48:29.128Z,6.82
2023-04-01T12:51:32.733Z,1.02
2023-04-01T12:54:18.114Z,2.15
2023-04-01T12:57:14.864Z,2.35
2023-04-01T13:00:00.480Z,4.72
2023-04-01T13:02:50.631Z,2.05
2023-04-01T13:05:39.355Z,3.88
2023-04-01T13:08:30.947Z,9.18
2023-04-01T13:11:10.835Z,2.05
2023-04-01T13:13:40.848Z,10.63
2023-04-01T13:16:39.829Z,11.70
2023-04-01T13:19:37.317Z,3.60
2023-04-01T13:22:29.209Z,2.10
2023-04-01T13:25:08.779Z,1.88
2023-04-01T13:27:43.368Z,1.13
2023-04-01T13:30:34.778Z,10.20
2023-04-01T13:33:29.290Z,4.28
2023-04-01T13:36:26.830Z,2.95
2023-04-01T13:39:27.380Z,10.15
2023-04-01T13:41:54.190Z,2.88
2023-04-01T13:44:37.604Z,2.20
2023-04-01T13:47:07.784Z,1.70
2023-04-01T13:50:02.241Z,2.70
2023-04-01T13:52:42.083Z,1.88
2023-04-01T13:55:44.112Z,1.67
2023-04-01T13:58:26.098Z,5.22
2023-04-01T14:01:15.637Z,7.53
2023-04-01T14:04:20.378Z,3.33
2023-04-01T14:07:17.494Z,2.47
2023-04-01T14:10:18.225Z,3.03
2023-04-01T14:13:13.577Z,6.07
2023-04-01T14:16:06.710Z,7.43
2023-04-01T14:19:10.833Z,6.35
2023-04-01T14:21:59.265Z,6.50
2023-04-01T14:24:29.027Z,2.05
2023-04-01T14:27:10.105Z,2.87
2023-04-01T14:29:49.733Z,4.00
2023-04-01T14:32:54.921Z,7.55
2023-04-01T14:35:47.553Z,4.78
2023-04-01T14:38:39.011Z,4.05
2023-04-01T14:41:41.322Z,7.10
2023-04-01T14:44:20.692Z,13.15
2023-04-01T14:47:05.644Z,4.30
2023-04-01T14:49:37.610Z,7.90
2023-04-01T14:52:17.392Z,2.65
2023-04-01T14:54:48.000Z,10.57
2023-04-01T14:57:15.916Z,6.15
2023-04-01T14:59:49.070Z,16.13
2023-04-01T15:02:54.974Z,8.57
2023-04-01T15:05:28.964Z,5.63
2023-04-01T15:08:07.746Z,6.13
2023-04-01T15:10:58.727Z,8.57
2023-04-01T15:13:31.330Z,9.45
2023-04-01T15:16:26.721Z,3.75
2023-04-01T15:19:12.305Z,8.05
2023-04-01T15:21:44.726Z,12.82
2023-04-01T15:24:20.557Z,7.90
2023-04-01T15:27:02.142Z,3.70
2023-04-01T15:29:44.034Z,46.00
2023-04-01T15:32:48.491Z,3.72
2023-04-01T15:35:51.914Z,6.63
2023-04-01T15:38:42.834Z,5.00
2023-04-01T15:41:16.983Z,17.45
2023-04-01T15:43:49.863Z,6.70
2023-04-01T15:46:23.043Z,4.93
2023-04-01T15:48:49.905Z,9.18
2023-04-01T15:51:25.448Z,4.78
2023-04-01T15:54:04.225Z,3.67
2023-04-01T15:56:54.910Z,3.05
2023-04-01T15:59:43.390Z,2.47
2023-04-01T16:02:36.437Z,11.32
2023-04-01T16:05:44.905Z,6.85
2023-04-01T16:08:11.833Z,9.27
2023-04-01T16:10:57.575Z,4.75
2023-04-01T16:13:53.807Z,7.65
2023-04-01T16:16:53.896Z,7.78
2023-04-01T16:19:45.335Z,19.67
2023-04-01T16:22:16.446Z,16.90
2023-04-01T16:25:06.493Z,14.20
2023-04-01T16:27:56.387Z,21.20
2023-04-01T16:30:41.705Z,13.32
2023-04-01T16:33:11.501Z,8.40
2023-04-01T16:35:59.711Z,8.40
2023-04-01T16:39:07.539Z,6.85
2023-04-01T16:41:38.015Z,4.38
2023-04-01T16:44:27.419Z,10.77
2023-04-01T16:47:00.572Z,5.70
2023-04-01T16:49:33.150Z,4.18
2023-04-01T16:52:12.277Z,2.67
2023-04-01T16:54:54.836Z,9.50
2023-04-01T16:57:24.414Z,4.03
2023-04-01T17:00:18.977Z,9.02
2023-04-01T17:02:52.812Z,4.30
2023-04-01T17:05:19.699Z,3.38
2023-04-01T17:08:02.246Z,11.82
2023-04-01T17:10:32.260Z,18.50
2023-04-01T17:13:36.504Z,16.98
2023-04-01T17:16:15.282Z,5.13
2023-04-01T17:19:03.231Z,4.65
2023-04-01T17:21:39.575Z,3.13
2023-04-01T17:24:49.269Z,7.93
2023-04-01T17:27:19.429Z,4.00
2023-04-01T17:30:23.571Z,5.57
2023-04-01T17:33:14.450Z,7.75
2023-04-01T17:35:45.197Z,11.52
2023-04-01T17:38:41.992Z,8.57
2023-04-01T17:41:36.016Z,14.05
2023-04-01T17:44:25.735Z,19.48
2023-04-01T17:46:55.428Z,59.22
2023-04-01T17:49:46.629Z,11.60
2023-04-01T17:52:45.674Z,18.83
2023-04-01T17:55:37.635Z,16.85
2023-04-01T17:58:29.474Z,23.55
2023-04-01T18:01:03.131Z,98.03
2023-04-01T18:03:55.033Z,9.00
2023-04-01T18:06:25.908Z,3.10
2023-04-01T18:09:21.889Z,11.65
2023-04-01T18:12:24.890Z,17.27
2023-04-01T18:15:26.001Z,11.05
2023-04-01T18:21:14.933Z,11.50
2023-04-01T18:24:01.606Z,8.98
2023-04-01T18:26:32.401Z,6.88
2023-04-01T18:29:20.290Z,3.28
2023-04-01T18:31:49.762Z,8.57
2023-04-01T18:34:51.368Z,3.92
2023-04-01T18:37:38.236Z,10.00
2023-04-01T18:40:17.020Z,14.88
2023-04-01T18:42:58.505Z,17.55
2023-04-01T18:45:47.504Z,26.55
2023-04-01T18:48:50.053Z,28.77
2023-04-01T18:51:44.736Z,20.92
2023-04-01T18:54:15.875Z,15.75
2023-04-01T18:56:44.506Z,25.20
2023-04-01T18:59:28.493Z,14.73
2023-04-01T19:02:23.015Z,17.75
2023-04-01T19:05:11.406Z,33.55
2023-04-01T19:07:38.306Z,21.35
2023-04-01T19:10:18.752Z,24.48
2023-04-01T19:13:16.215Z,26.98
2023-04-01T19:16:10.299Z,34.08
2023-04-01T19:18:55.876Z,42.50
2023-04-01T19:21:24.007Z,22.20
2023-04-01T19:24:29.413Z,34.85
2023-04-01T19:27:25.526Z,32.42
2023-04-01T19:30:20.026Z,25.83
2023-04-01T19:33:16.747Z,10.18
2023-04-01T19:36:07.638Z,10.50
2023-04-01T19:41:12.068Z,8.13
2023-04-01T19:43:55.365Z,11.45
2023-04-01T19:46:47.641Z,11.65
2023-04-01T19:49:32.979Z,11.90
2023-04-01T19:52:04.527Z,12.00
2023-04-01T19:54:34.487Z,12.77
2023-04-01T19:57:07.517Z,10.80
2023-04-01T20:00:12.841Z,12.73
2023-04-01T20:03:17.280Z,12.98
2023-04-01T20:06:17.718Z,11.65
2023-04-01T20:09:08.898Z,12.38
2023-04-01T20:11:58.675Z,18.30
2023-04-01T20:14:37.707Z,14.95
2023-04-01T20:17:07.575Z,12.88
2023-04-01T20:19:43.051Z,12.18
2023-04-01T20:22:48.861Z,16.00
2023-04-01T20:25:41.637Z,17.35
2023-04-01T20:28:21.884Z,15.98
2023-04-01T20:31:16.662Z,20.48
2023-04-01T20:33:49.164Z,14.00
2023-04-01T20:36:37.171Z,12.35
2023-04-01T20:39:31.199Z,12.63
2023-04-01T20:42:12.769Z,13.57
2023-04-01T20:44:45.066Z,11.50
2023-04-01T20:47:23.991Z,11.60
2023-04-01T20:49:55.173Z,10.70
2023-04-01T20:52:26.464Z,12.45
2023-04-01T20:54:53.161Z,11.07
2023-04-01T20:57:24.138Z,11.43
2023-04-01T20:59:53.793Z,8.05
2023-04-01T21:02:29.709Z,17.55
2023-04-01T21:05:34.347Z,17.70
2023-04-01T21:08:39.371Z,15.10
2023-04-01T21:11:29.109Z,11.75
2023-04-01T21:14:29.553Z,15.90
2023-04-01T21:17:02.140Z,14.60
2023-04-01T21:19:52.694Z,16.10
2023-04-01T21:22:55.691Z,14.02
2023-04-01T21:25:54.827Z,13.73
2023-04-01T21:28:43.584Z,14.73
2023-04-01T21:31:23.855Z,18.38
2023-04-01T21:34:02.647Z,12.40
2023-04-01T21:36:47.576Z,24.33
2023-04-01T21:39:32.324Z,16.80
2023-04-01T21:42:04.818Z,14.88
2023-04-01T21:44:59.227Z,19.52
2023-04-01T21:47:57.519Z,13.82
2023-04-01T21:50:30.400Z,15.82
2023-04-01T21:53:34.879Z,12.85
2023-04-01T21:56:20.339Z,14.98
2023-04-01T21:59:03.040Z,18.35
2023-04-01T22:02:03.691Z,19.17
2023-04-01T22:04:48.949Z,20.45
2023-04-01T22:07:24.564Z,26.92
2023-04-01T22:10:32.950Z,26.58
2023-04-01T22:13:34.813Z,26.88
2023-04-01T22:16:30.965Z,25.65
2023-04-01T22:19:15.619Z,29.52
2023-04-01T22:21:53.062Z,32.95
2023-04-01T22:24:38.369Z,32.20
2023-04-01T22:27:15.710Z,25.98
2023-04-01T22:29:57.423Z,32.78
2023-04-01T22:32:28.192Z,31.35
2023-04-01T22:35:18.141Z,32.45
2023-04-01T22:37:57.182Z,26.15
2023-04-01T22:40:27.099Z,28.52
2023-04-01T22:43:13.867Z,37.03
2023-04-01T22:46:02.174Z,23.13
2023-04-01T22:48:54.888Z,31.88
2023-04-01T22:51:42.825Z,35.70
2023-04-01T22:54:12.717Z,32.30
2023-04-01T22:56:57.684Z,33.90
2023-04-01T22:59:38.913Z,29.92
2023-04-01T23:02:19.073Z,37.25
2023-04-01T23:04:48.399Z,28.70
2023-04-01T23:07:47.413Z,29.58
2023-04-01T23:10:23.117Z,27.45
2023-04-01T23:12:51.230Z,26.50
2023-04-01T23:15:18.048Z,18.95
2023-04-01T23:17:56.133Z,16.60
2023-04-01T23:20:31.998Z,16.58
2023-04-01T23:23:20.435Z,13.55
2023-04-01T23:26:07.621Z,16.90
2023-04-01T23:28:43.253Z,14.82
2023-04-01T23:31:36.391Z,16.00
2023-04-01T23:34:04.321Z,9.02
2023-04-01T23:36:32.018Z,14.23
2023-04-01T23:39:06.443Z,11.30
2023-04-01T23:41:33.195Z,12.57
2023-04-01T23:44:05.480Z,14.15
2023-04-01T23:46:33.161Z,8.40
2023-04-01T23:48:59.887Z,9.95
2023-04-01T23:51:27.924Z,11.23
2023-04-01T23:54:15.261Z,9.95
2023-04-01T23:56:51.745Z,9.15
2023-04-01T23:59:20.100Z,11.95
